createdAt,value
2019-02-05T00:02:08.812Z,78.40
2019-02-05T00:04:35.552Z,78.30
2019-02-05T00:07:02.288Z,78.40
2019-02-05T00:09:29.064Z,78.40
2019-02-05T00:11:55.796Z,78.30
2019-02-05T00:14:22.814Z,77.80
2019-02-05T00:16:49.565Z,77.50
2019-02-05T00:19:16.268Z,77.60
2019-02-05T00:21:42.991Z,78.10
2019-02-05T00:24:09.845Z,78.00
2019-02-05T00:26:36.535Z,78.20
2019-02-05T00:29:03.266Z,78.80
2019-02-05T00:31:30.142Z,78.90
2019-02-05T00:33:56.841Z,78.80
2019-02-05T00:36:23.552Z,79.20
2019-02-05T00:38:50.325Z,79.80
2019-02-05T00:41:17.108Z,79.00
2019-02-05T00:43:44.020Z,79.90
2019-02-05T00:46:10.761Z,79.20
2019-02-05T00:48:37.519Z,78.90
2019-02-05T00:51:04.504Z,78.80
2019-02-05T00:53:31.336Z,78.80
2019-02-05T00:55:58.042Z,78.90
2019-02-05T00:58:24.745Z,79.00
2019-02-05T01:00:51.491Z,78.80
2019-02-05T01:03:18.184Z,78.90
2019-02-05T01:05:44.928Z,78.70
2019-02-05T01:08:11.655Z,78.30
2019-02-05T01:10:38.573Z,78.10
2019-02-05T01:13:05.270Z,78.70
2019-02-05T01:15:32.137Z,79.10
2019-02-05T01:17:58.874Z,79.50
2019-02-05T01:20:25.589Z,80.20
2019-02-05T01:22:52.482Z,80.10
2019-02-05T01:25:19.787Z,80.70
2019-02-05T01:27:46.940Z,80.70
2019-02-05T01:30:19.362Z,80.90
2019-02-05T01:32:46.106Z,80.70
2019-02-05T01:35:12.870Z,81.20
2019-02-05T01:37:39.684Z,80.50
2019-02-05T01:40:10.047Z,80.70
2019-02-05T01:42:36.854Z,80.70
2019-02-05T01:45:06.346Z,80.80
2019-02-05T01:47:33.089Z,79.90
2019-02-05T01:49:59.787Z,79.60
2019-02-05T01:52:26.520Z,79.30
2019-02-05T01:54:53.201Z,79.60
2019-02-05T01:57:19.917Z,79.60
2019-02-05T01:59:46.697Z,77.90
2019-02-05T02:02:13.746Z,77.80
2019-02-05T02:04:40.535Z,78.30
2019-02-05T02:07:07.697Z,79.30
2019-02-05T02:09:34.369Z,79.50
2019-02-05T02:12:01.055Z,79.80
2019-02-05T02:14:27.791Z,80.20
2019-02-05T02:16:54.491Z,80.20
2019-02-05T02:19:21.190Z,80.30
2019-02-05T02:21:48.178Z,80.20
2019-02-05T02:24:14.918Z,80.00
2019-02-05T02:26:51.617Z,80.00
2019-02-05T02:29:10.160Z,79.80
2019-02-05T02:31:36.889Z,80.30
2019-02-05T02:34:03.647Z,80.30
2019-02-05T02:36:30.471Z,80.10
2019-02-05T02:38:57.434Z,80.10
2019-02-05T02:41:24.140Z,80.20
2019-02-05T02:43:51.834Z,80.00
2019-02-05T02:46:18.564Z,79.90
2019-02-05T02:48:45.248Z,79.90
2019-02-05T02:51:12.018Z,80.00
2019-02-05T02:53:38.735Z,79.90
2019-02-05T02:56:05.427Z,79.60
2019-02-05T02:58:32.461Z,79.30
2019-02-05T03:00:59.165Z,80.10
2019-02-05T03:03:25.854Z,79.20
2019-02-05T03:05:52.620Z,78.90
2019-02-05T03:08:19.447Z,79.00
2019-02-05T03:10:46.151Z,79.30
2019-02-05T03:13:12.915Z,80.30
2019-02-05T03:15:39.614Z,80.10
2019-02-05T03:18:06.307Z,80.40
2019-02-05T03:20:33.354Z,80.40
2019-02-05T03:23:00.041Z,80.90
2019-02-05T03:25:26.732Z,81.00
2019-02-05T03:27:54.291Z,80.90
2019-02-05T03:30:22.628Z,81.20
2019-02-05T03:32:49.440Z,81.50
2019-02-05T03:35:16.290Z,81.20
2019-02-05T03:37:42.998Z,82.00
2019-02-05T03:40:28.356Z,81.90
2019-02-05T03:42:55.063Z,81.60
2019-02-05T03:45:23.210Z,79.20
2019-02-05T03:47:51.188Z,79.50
2019-02-05T03:50:17.919Z,78.70
2019-02-05T03:52:47.637Z,78.40
2019-02-05T03:55:30.203Z,77.50
2019-02-05T03:58:18.961Z,77.50
2019-02-05T04:00:58.462Z,76.80
2019-02-05T04:03:49.951Z,76.70
2019-02-05T04:06:26.535Z,76.30
2019-02-05T04:09:14.994Z,76.30
2019-02-05T04:11:48.127Z,76.60
2019-02-05T04:14:51.864Z,76.10
2019-02-05T04:17:22.214Z,75.10
2019-02-05T04:19:55.282Z,75.40
2019-02-05T04:22:42.236Z,76.70
2019-02-05T04:25:15.484Z,77.00
2019-02-05T04:27:47.423Z,76.50
2019-02-05T04:30:42.397Z,76.00
2019-02-05T04:33:19.056Z,75.50
2019-02-05T04:35:52.369Z,73.80
2019-02-05T04:38:37.589Z,73.20
2019-02-05T04:41:33.797Z,73.80
2019-02-05T04:44:28.691Z,74.20
2019-02-05T04:47:14.328Z,74.00
2019-02-05T04:49:53.704Z,74.50
2019-02-05T04:52:42.480Z,74.90
2019-02-05T04:55:25.249Z,74.60
2019-02-05T04:58:14.123Z,74.40
2019-02-05T05:00:56.173Z,75.70
2019-02-05T05:03:44.730Z,76.40
2019-02-05T05:06:24.419Z,76.70
2019-02-05T05:09:13.759Z,76.80
2019-02-05T05:11:41.245Z,74.90
2019-02-05T05:14:07.976Z,75.20
2019-02-05T05:16:34.658Z,75.00
2019-02-05T05:19:01.632Z,75.00
2019-02-05T05:21:28.346Z,75.20
2019-02-05T05:23:55.540Z,76.40
2019-02-05T05:26:22.298Z,75.80
2019-02-05T05:28:49.018Z,76.70
2019-02-05T05:31:15.766Z,76.60
2019-02-05T05:33:42.564Z,76.70
2019-02-05T05:36:09.264Z,77.30
2019-02-05T05:38:35.964Z,77.20
2019-02-05T05:41:02.734Z,78.30
2019-02-05T05:43:29.437Z,79.60
2019-02-05T05:45:56.275Z,79.80
2019-02-05T05:48:24.096Z,79.70
2019-02-05T05:50:50.817Z,79.60
2019-02-05T05:53:17.569Z,79.10
2019-02-05T05:55:44.345Z,77.60
2019-02-05T05:58:21.946Z,77.20
2019-02-05T06:00:39.568Z,76.40
2019-02-05T06:03:06.892Z,76.10
2019-02-05T06:05:54.400Z,76.70
2019-02-05T06:08:22.179Z,77.30
2019-02-05T06:10:48.893Z,77.20
2019-02-05T06:13:15.580Z,77.50
2019-02-05T06:15:42.368Z,77.40
2019-02-05T06:18:09.087Z,76.30
2019-02-05T06:20:35.828Z,77.20
2019-02-05T06:23:02.560Z,75.60
2019-02-05T06:25:29.298Z,76.20
2019-02-05T06:27:56.008Z,76.30
2019-02-05T06:30:22.774Z,76.00
2019-02-05T06:32:49.592Z,76.60
2019-02-05T06:35:16.333Z,76.40
2019-02-05T06:37:43.113Z,76.00
2019-02-05T06:40:18.551Z,76.30
2019-02-05T06:42:45.306Z,77.00
2019-02-05T06:45:13.731Z,77.50
2019-02-05T06:47:40.447Z,77.50
2019-02-05T06:50:10.106Z,77.50
2019-02-05T06:52:36.812Z,77.30
2019-02-05T06:55:05.924Z,76.70
2019-02-05T06:57:32.746Z,76.10
2019-02-05T06:59:59.470Z,76.10
2019-02-05T07:02:26.197Z,76.20
2019-02-05T07:05:03.247Z,75.60
2019-02-05T07:07:30.485Z,73.30
2019-02-05T07:10:06.433Z,73.10
2019-02-05T07:12:34.410Z,73.70
2019-02-05T07:15:01.115Z,74.40
2019-02-05T07:17:28.042Z,75.00
2019-02-05T07:19:54.781Z,75.90
2019-02-05T07:22:21.513Z,75.80
2019-02-05T07:24:48.235Z,75.30
2019-02-05T07:27:14.969Z,75.40
2019-02-05T07:29:41.682Z,74.80
2019-02-05T07:32:08.828Z,74.60
2019-02-05T07:34:35.557Z,73.50
2019-02-05T07:37:02.268Z,73.00
2019-02-05T07:39:29.037Z,72.70
2019-02-05T07:41:55.759Z,73.20
2019-02-05T07:44:22.466Z,73.20
2019-02-05T07:46:49.191Z,73.80
2019-02-05T07:49:15.984Z,74.70
2019-02-05T07:51:42.840Z,74.30
2019-02-05T07:54:09.631Z,74.30
2019-02-05T07:56:36.582Z,75.30
2019-02-05T07:59:10.412Z,75.00
2019-02-05T08:01:32.497Z,74.90
2019-02-05T08:04:00.139Z,75.90
2019-02-05T08:06:27.714Z,75.20
2019-02-05T08:08:54.712Z,75.40
2019-02-05T08:11:22.090Z,73.60
2019-02-05T08:13:49.600Z,73.80
2019-02-05T08:16:16.745Z,75.50
2019-02-05T08:18:44.207Z,76.00
2019-02-05T08:21:10.979Z,76.60
2019-02-05T08:23:37.791Z,75.80
2019-02-05T08:26:04.498Z,76.60
2019-02-05T08:28:40.644Z,76.60
2019-02-05T08:30:59.757Z,76.20
2019-02-05T08:33:26.467Z,75.80
2019-02-05T08:35:53.337Z,76.30
2019-02-05T08:38:20.077Z,76.60
2019-02-05T08:40:47.066Z,77.00
2019-02-05T08:43:13.886Z,77.20
2019-02-05T08:45:40.799Z,77.20
2019-02-05T08:48:10.384Z,77.10
2019-02-05T08:50:39.131Z,76.60
2019-02-05T08:53:06.942Z,75.30
2019-02-05T08:55:34.670Z,74.40
2019-02-05T08:58:09.590Z,73.40
2019-02-05T09:00:37.899Z,72.60
2019-02-05T09:03:05.622Z,72.90
2019-02-05T09:05:34.239Z,73.30
2019-02-05T09:08:01.214Z,71.80
2019-02-05T09:10:33.760Z,71.90
2019-02-05T09:13:00.478Z,71.60
2019-02-05T09:15:29.657Z,71.20
2019-02-05T09:17:57.208Z,71.20
2019-02-05T09:20:23.958Z,70.80
2019-02-05T09:22:50.654Z,70.80
2019-02-05T09:25:18.268Z,70.70
2019-02-05T09:27:45.238Z,71.10
2019-02-05T09:30:25.429Z,71.00
2019-02-05T09:32:56.136Z,71.60
2019-02-05T09:35:24.947Z,72.00
2019-02-05T09:37:52.939Z,72.60
2019-02-05T09:40:26.104Z,72.10
2019-02-05T09:42:53.140Z,71.40
2019-02-05T09:45:20.002Z,71.50
2019-02-05T09:47:46.787Z,71.60
2019-02-05T09:50:16.085Z,71.20
2019-02-05T09:52:42.795Z,70.80
2019-02-05T09:55:15.908Z,70.00
2019-02-05T09:57:42.616Z,69.80
2019-02-05T10:00:26.800Z,69.30
2019-02-05T10:02:53.888Z,68.80
2019-02-05T10:05:25.243Z,69.60
2019-02-05T10:07:52.020Z,69.90
2019-02-05T10:10:20.263Z,69.50
2019-02-05T10:12:47.193Z,69.20
2019-02-05T10:15:16.413Z,68.90
2019-02-05T10:17:43.186Z,68.90
2019-02-05T10:20:11.021Z,69.00
2019-02-05T10:22:38.077Z,68.90
2019-02-05T10:25:09.887Z,69.30
2019-02-05T10:27:36.645Z,69.60
2019-02-05T10:30:12.729Z,69.80
2019-02-05T10:32:39.638Z,70.00
2019-02-05T10:35:07.759Z,70.00
2019-02-05T10:37:35.331Z,69.20
2019-02-05T10:40:02.127Z,70.10
2019-02-05T10:42:28.840Z,70.10
2019-02-05T10:44:55.636Z,70.70
2019-02-05T10:47:22.376Z,70.70
2019-02-05T10:49:49.193Z,70.90
2019-02-05T10:52:16.061Z,71.30
2019-02-05T10:54:42.835Z,72.60
2019-02-05T10:57:09.728Z,71.90
2019-02-05T10:59:36.771Z,71.50
2019-02-05T11:02:03.487Z,70.90
2019-02-05T11:04:30.218Z,70.70
2019-02-05T11:06:57.067Z,70.50
2019-02-05T11:09:24.607Z,69.70
2019-02-05T11:11:51.528Z,69.50
2019-02-05T11:14:18.929Z,69.80
2019-02-05T11:16:45.629Z,71.20
2019-02-05T11:19:15.099Z,70.00
2019-02-05T11:21:42.146Z,70.30
2019-02-05T11:24:09.969Z,70.50
2019-02-05T11:26:39.738Z,70.20
2019-02-05T11:29:08.424Z,70.50
2019-02-05T11:31:35.139Z,70.10
2019-02-05T11:34:02.155Z,69.90
2019-02-05T11:36:52.055Z,70.20
2019-02-05T11:39:18.645Z,69.60
2019-02-05T11:41:45.342Z,70.60
2019-02-05T11:44:12.099Z,70.90
2019-02-05T11:46:38.828Z,70.90
2019-02-05T11:49:05.512Z,71.10
2019-02-05T11:51:32.953Z,71.10
2019-02-05T11:53:59.962Z,71.90
2019-02-05T11:56:26.812Z,72.20
2019-02-05T11:58:54.266Z,72.10
2019-02-05T12:01:21.058Z,71.60
2019-02-05T12:03:47.771Z,71.60
2019-02-05T12:06:14.829Z,71.60
2019-02-05T12:08:41.910Z,71.70
2019-02-05T12:11:08.945Z,71.60
2019-02-05T12:13:37.107Z,71.70
2019-02-05T12:16:04.096Z,72.30
2019-02-05T12:18:30.927Z,72.10
2019-02-05T12:20:57.684Z,72.60
2019-02-05T12:23:27.347Z,72.60
2019-02-05T12:25:54.114Z,73.50
2019-02-05T12:28:21.304Z,73.20
2019-02-05T12:30:47.996Z,73.00
2019-02-05T12:33:14.683Z,72.80
2019-02-05T12:35:41.948Z,72.90
2019-02-05T12:38:08.645Z,72.80
2019-02-05T12:40:35.330Z,73.00
2019-02-05T12:43:02.104Z,73.20
2019-02-05T12:45:30.891Z,73.20
2019-02-05T12:47:57.597Z,73.60
2019-02-05T12:50:27.342Z,72.70
2019-02-05T12:52:54.127Z,72.50
2019-02-05T12:55:21.224Z,73.10
2019-02-05T12:57:47.961Z,72.80
2019-02-05T13:00:23.786Z,73.20
2019-02-05T13:02:50.589Z,73.20
2019-02-05T13:05:17.396Z,73.40
2019-02-05T13:07:44.107Z,73.50
2019-02-05T13:10:14.483Z,73.50
2019-02-05T13:12:41.226Z,73.50
2019-02-05T13:15:09.747Z,73.30
2019-02-05T13:17:36.557Z,73.70
2019-02-05T13:20:06.886Z,74.20
2019-02-05T13:22:33.611Z,74.20
2019-02-05T13:25:00.450Z,74.30
2019-02-05T13:27:27.466Z,74.00
2019-02-05T13:29:54.182Z,74.10
2019-02-05T13:32:20.942Z,74.10
2019-02-05T13:34:47.674Z,74.30
2019-02-05T13:37:14.383Z,74.10
2019-02-05T13:39:41.970Z,73.90
2019-02-05T13:42:08.693Z,73.90
2019-02-05T13:44:35.464Z,74.50
2019-02-05T13:47:02.531Z,74.80
2019-02-05T13:49:29.302Z,75.10
2019-02-05T13:51:56.083Z,75.20
2019-02-05T13:54:22.896Z,74.80
2019-02-05T13:56:49.578Z,74.60
2019-02-05T13:59:16.277Z,74.70
2019-02-05T14:01:44.663Z,74.60
2019-02-05T14:04:11.644Z,74.90
2019-02-05T14:06:38.348Z,74.80
2019-02-05T14:09:10.645Z,74.90
2019-02-05T14:11:37.313Z,74.70
2019-02-05T14:14:04.055Z,75.10
2019-02-05T14:16:30.787Z,75.30
2019-02-05T14:18:57.484Z,75.60
2019-02-05T14:21:24.255Z,75.80
2019-02-05T14:23:51.394Z,75.80
2019-02-05T14:26:18.192Z,75.80
2019-02-05T14:28:44.899Z,75.90
2019-02-05T14:31:11.756Z,76.10
2019-02-05T14:33:38.454Z,76.30
2019-02-05T14:36:05.174Z,76.80
2019-02-05T14:38:31.923Z,76.70
2019-02-05T14:40:58.634Z,77.20
2019-02-05T14:43:25.752Z,78.70
2019-02-05T14:45:52.554Z,79.80
2019-02-05T14:48:19.247Z,80.10
2019-02-05T14:50:46.658Z,80.10
2019-02-05T14:53:13.446Z,80.40
2019-02-05T14:55:40.145Z,81.20
2019-02-05T14:58:08.630Z,81.60
2019-02-05T15:00:36.380Z,81.30
2019-02-05T15:03:05.861Z,81.00
2019-02-05T15:05:32.560Z,81.20
2019-02-05T15:07:59.361Z,81.20
2019-02-05T15:10:26.122Z,81.70
2019-02-05T15:12:52.822Z,81.40
2019-02-05T15:15:26.439Z,81.20
2019-02-05T15:17:53.164Z,80.70
2019-02-05T15:20:26.193Z,80.10
2019-02-05T15:22:53.120Z,80.50
2019-02-05T15:25:19.823Z,80.40
2019-02-05T15:27:46.532Z,80.60
2019-02-05T15:30:19.375Z,79.70
2019-02-05T15:33:04.837Z,80.10
2019-02-05T15:35:34.362Z,80.70
2019-02-05T15:38:01.114Z,81.00
2019-02-05T15:40:27.798Z,81.30
2019-02-05T15:42:54.559Z,81.40
2019-02-05T15:45:21.703Z,81.80
2019-02-05T15:47:48.511Z,82.00
2019-02-05T15:50:15.250Z,82.10
2019-02-05T15:52:41.968Z,82.00
2019-02-05T15:55:10.170Z,81.90
2019-02-05T15:57:36.978Z,81.00
2019-02-05T16:00:15.840Z,81.40
2019-02-05T16:02:42.576Z,81.40
2019-02-05T16:05:10.750Z,79.10
2019-02-05T16:07:38.395Z,78.40
2019-02-05T16:10:11.504Z,78.30
2019-02-05T16:12:38.346Z,78.70
2019-02-05T16:15:07.368Z,78.80
2019-02-05T16:17:34.558Z,78.90
2019-02-05T16:20:01.286Z,77.60
2019-02-05T16:22:27.953Z,78.20
2019-02-05T16:24:54.707Z,78.70
2019-02-05T16:27:21.511Z,78.80
2019-02-05T16:29:48.298Z,77.20
2019-02-05T16:32:17.593Z,77.10
2019-02-05T16:34:43.974Z,76.60
2019-02-05T16:37:10.737Z,77.20
2019-02-05T16:42:31.547Z,76.30
2019-02-05T16:44:58.262Z,76.00
2019-02-05T16:47:25.352Z,75.40
2019-02-05T16:49:52.246Z,75.30
2019-02-05T16:52:18.988Z,76.60
2019-02-05T16:54:45.775Z,75.90
2019-02-05T16:57:12.551Z,77.30
2019-02-05T16:59:39.494Z,76.50
2019-02-05T17:06:00.347Z,75.50
2019-02-05T17:08:27.204Z,75.80
2019-02-05T17:10:53.915Z,76.90
2019-02-05T17:13:20.629Z,77.40
2019-02-05T17:15:47.381Z,77.60
2019-02-05T17:18:23.371Z,77.50
2019-02-05T17:20:42.554Z,77.80
2019-02-05T17:23:09.451Z,78.10
2019-02-05T17:25:36.378Z,77.90
2019-02-05T17:28:05.639Z,78.20
2019-02-05T17:30:37.217Z,78.30
2019-02-05T17:33:04.141Z,78.60
2019-02-05T17:35:30.967Z,79.00
2019-02-05T17:37:57.728Z,78.90
2019-02-05T17:40:25.235Z,78.50
2019-02-05T17:42:53.891Z,79.10
2019-02-05T17:45:23.652Z,77.60
2019-02-05T17:47:50.491Z,77.70
2019-02-05T17:50:17.182Z,77.10
2019-02-05T17:52:43.939Z,76.60
2019-02-05T17:55:15.695Z,76.00
2019-02-05T17:57:42.419Z,76.00
2019-02-05T18:00:29.242Z,76.00
2019-02-05T18:02:55.943Z,76.10
2019-02-05T18:05:25.243Z,76.30
2019-02-05T18:07:54.973Z,75.80
2019-02-05T18:10:24.420Z,75.60
2019-02-05T18:13:18.554Z,75.40
2019-02-05T18:15:45.273Z,75.60
2019-02-05T18:18:12.456Z,75.60
2019-02-05T18:20:39.155Z,76.00
2019-02-05T18:23:05.870Z,75.60
2019-02-05T18:29:20.099Z,76.30
2019-02-05T18:31:46.002Z,76.40
2019-02-05T18:34:14.798Z,76.60
2019-02-05T18:36:41.205Z,76.00
2019-02-05T18:39:08.078Z,76.00
2019-02-05T18:41:34.754Z,76.00
2019-02-05T18:44:01.470Z,75.90
2019-02-05T18:46:28.227Z,76.00
2019-02-05T18:49:04.622Z,76.00
2019-02-05T18:51:23.446Z,76.10
2019-02-05T18:53:50.603Z,76.20
2019-02-05T18:56:17.284Z,76.60
2019-02-05T18:58:44.003Z,77.20
2019-02-05T19:01:10.802Z,76.90
2019-02-05T19:03:37.492Z,76.90
2019-02-05T19:06:04.201Z,76.90
2019-02-05T19:08:31.202Z,76.80
2019-02-05T19:10:57.898Z,77.30
2019-02-05T19:13:24.923Z,77.80
2019-02-05T19:15:51.666Z,77.80
2019-02-05T19:18:18.352Z,77.70
2019-02-05T19:20:45.053Z,77.00
2019-02-05T19:23:11.876Z,76.90
2019-02-05T19:25:55.704Z,77.00
2019-02-05T19:28:24.686Z,77.00
2019-02-05T19:30:53.220Z,76.60
2019-02-05T19:33:27.074Z,76.70
2019-02-05T19:35:48.468Z,77.30
2019-02-05T19:38:15.179Z,77.40
2019-02-05T19:40:41.872Z,77.40
2019-02-05T19:43:08.761Z,78.10
2019-02-05T19:45:43.398Z,78.20
2019-02-05T19:48:12.085Z,78.30
2019-02-05T19:50:38.892Z,78.50
2019-02-05T19:53:05.694Z,78.00
2019-02-05T19:55:32.446Z,78.40
2019-02-05T19:57:59.139Z,78.40
2019-02-05T20:00:25.809Z,78.80
2019-02-05T20:02:55.406Z,79.10
2019-02-05T20:05:21.094Z,78.90
2019-02-05T20:07:48.262Z,78.50
2019-02-05T20:10:16.295Z,78.00
2019-02-05T20:12:43.005Z,78.10
2019-02-05T20:15:14.618Z,78.00
2019-02-05T20:17:41.395Z,78.30
2019-02-05T20:20:18.459Z,78.60
2019-02-05T20:22:45.549Z,78.50
2019-02-05T20:25:14.871Z,78.60
2019-02-05T20:27:41.593Z,78.60
2019-02-05T20:30:14.898Z,78.60
2019-02-05T20:32:41.591Z,78.70
2019-02-05T20:35:08.285Z,78.60
2019-02-05T20:37:35.087Z,79.60
2019-02-05T20:40:01.812Z,78.90
2019-02-05T20:42:28.909Z,78.70
2019-02-05T20:44:55.868Z,78.80
2019-02-05T20:47:22.547Z,78.70
2019-02-05T20:49:49.264Z,79.10
2019-02-05T20:52:16.029Z,79.00
2019-02-05T20:54:42.736Z,79.40
2019-02-05T20:57:09.448Z,79.40
2019-02-05T20:59:36.215Z,79.50
2019-02-05T21:02:02.915Z,79.70
2019-02-05T21:04:30.082Z,79.60
2019-02-05T21:07:01.648Z,79.80
2019-02-05T21:09:30.196Z,79.80
2019-02-05T21:11:57.820Z,78.90
2019-02-05T21:14:24.575Z,78.00
2019-02-05T21:16:52.312Z,77.60
2019-02-05T21:19:18.988Z,77.20
2019-02-05T21:21:46.154Z,76.90
2019-02-05T21:24:12.892Z,77.00
2019-02-05T21:26:39.566Z,77.20
2019-02-05T21:29:10.052Z,77.30
2019-02-05T21:31:36.780Z,77.20
2019-02-05T21:34:14.924Z,77.30
2019-02-05T21:36:36.725Z,77.50
2019-02-05T21:39:06.817Z,78.20
2019-02-05T21:41:33.510Z,78.60
2019-02-05T21:44:00.247Z,78.60
2019-02-05T21:46:26.970Z,78.60
2019-02-05T21:48:53.693Z,78.70
2019-02-05T21:51:20.597Z,78.80
2019-02-05T21:53:47.294Z,78.30
2019-02-05T21:56:13.980Z,78.40
2019-02-05T21:58:40.722Z,78.90
2019-02-05T22:01:14.337Z,79.00
2019-02-05T22:03:47.195Z,79.00
2019-02-05T22:06:20.897Z,78.70
2019-02-05T22:08:47.924Z,78.20
2019-02-05T22:11:14.670Z,78.10
2019-02-05T22:13:41.440Z,78.10
2019-02-05T22:16:08.360Z,77.80
2019-02-05T22:18:35.158Z,78.00
2019-02-05T22:21:02.357Z,78.20
2019-02-05T22:23:29.603Z,78.40
2019-02-05T22:25:56.294Z,78.60
2019-02-05T22:28:22.997Z,79.20
2019-02-05T22:30:50.391Z,79.20
2019-02-05T22:33:17.071Z,79.30
2019-02-05T22:35:43.759Z,79.50
2019-02-05T22:38:13.581Z,79.50
2019-02-05T22:40:40.246Z,79.60
2019-02-05T22:43:07.363Z,79.40
2019-02-05T22:45:34.094Z,79.50
2019-02-05T22:48:00.803Z,79.60
2019-02-05T22:50:34.131Z,79.90
2019-02-05T22:53:03.178Z,80.20
2019-02-05T22:55:29.895Z,80.30
2019-02-05T22:57:56.571Z,81.30
2019-02-05T23:00:49.469Z,80.90
2019-02-05T23:03:19.502Z,81.00
2019-02-05T23:06:08.253Z,81.30
2019-02-05T23:08:34.930Z,81.30
2019-02-05T23:11:11.459Z,81.50
2019-02-05T23:13:38.137Z,81.50
2019-02-05T23:16:05.739Z,81.20
2019-02-05T23:18:32.513Z,81.60
2019-02-05T23:20:59.232Z,81.30
2019-02-05T23:23:25.934Z,81.70
2019-02-05T23:25:52.662Z,82.00
2019-02-05T23:28:19.418Z,81.70
2019-02-05T23:30:46.274Z,81.70
2019-02-05T23:33:13.072Z,81.80
2019-02-05T23:35:39.731Z,81.80
2019-02-05T23:38:06.438Z,81.70
2019-02-05T23:40:33.222Z,81.60
2019-02-05T23:43:00.013Z,81.10
2019-02-05T23:45:26.727Z,80.90
2019-02-05T23:47:53.487Z,81.20
2019-02-05T23:50:20.668Z,81.40
2019-02-05T23:52:47.371Z,81.60
2019-02-05T23:55:14.154Z,81.60
2019-02-05T23:57:40.832Z,81.70
